createdAt,value
2023-02-11T00:00:20.571Z,41
2023-02-11T00:05:14.425Z,42
2023-02-11T00:10:22.240Z,41
2023-02-11T00:15:20.210Z,42
2023-02-11T00:20:14.227Z,42
2023-02-11T00:25:22.165Z,42
2023-02-11T00:30:18.115Z,42
2023-02-11T00:35:21.934Z,42
2023-02-11T00:40:18.123Z,42
2023-02-11T00:45:16.072Z,42
2023-02-11T00:50:21.963Z,42
2023-02-11T00:55:17.740Z,42
2023-02-11T01:00:16.737Z,42
2023-02-11T01:05:19.208Z,42
2023-02-11T01:10:18.340Z,42
2023-02-11T01:15:15.087Z,42
2023-02-11T01:20:13.854Z,42
2023-02-11T01:25:17.700Z,42
2023-02-11T01:30:16.751Z,42
2023-02-11T01:35:20.698Z,42
2023-02-11T01:40:20.562Z,42
2023-02-11T01:45:16.410Z,41
2023-02-11T01:50:18.171Z,42
2023-02-11T01:55:20.058Z,42
2023-02-11T02:00:21.989Z,42
2023-02-11T02:05:19.890Z,42
2023-02-11T02:10:19.705Z,42
2023-02-11T02:15:20.581Z,40
2023-02-11T02:20:18.455Z,42
2023-02-11T02:25:16.353Z,42
2023-02-11T02:30:22.320Z,42
2023-02-11T02:35:18.458Z,41
2023-02-11T02:40:14.332Z,41
2023-02-11T02:45:16.351Z,41
2023-02-11T02:50:20.263Z,41
2023-02-11T02:55:14.037Z,41
2023-02-11T03:00:19.925Z,41
2023-02-11T03:05:17.711Z,41
2023-02-11T03:10:18.525Z,40
2023-02-11T03:15:18.425Z,41
2023-02-11T03:20:16.326Z,41
2023-02-11T03:25:16.255Z,42
2023-02-11T03:30:24.242Z,41
2023-02-11T03:35:18.360Z,41
2023-02-11T03:40:20.323Z,41
2023-02-11T03:45:16.288Z,41
2023-02-11T03:50:18.105Z,40
2023-02-11T03:55:17.879Z,41
2023-02-11T04:00:15.721Z,41
2023-02-11T04:05:14.544Z,41
2023-02-11T04:10:24.603Z,40
2023-02-11T04:15:22.535Z,41
2023-02-11T04:20:18.494Z,41
2023-02-11T04:25:14.356Z,41
2023-02-11T04:30:18.123Z,41
2023-02-11T04:35:23.888Z,40
2023-02-11T04:40:15.885Z,41
2023-02-11T04:45:21.788Z,41
2023-02-11T04:50:14.575Z,40
2023-02-11T04:55:16.739Z,40
2023-02-11T05:00:14.637Z,41
2023-02-11T05:05:18.457Z,41
2023-02-11T05:10:14.221Z,40
2023-02-11T05:15:18.227Z,40
2023-02-11T05:20:18.088Z,41
2023-02-11T05:25:17.972Z,41
2023-02-11T05:30:15.729Z,42
2023-02-11T05:35:18.624Z,42
2023-02-11T05:40:20.336Z,42
2023-02-11T05:45:16.213Z,42
2023-02-11T05:50:15.955Z,41
2023-02-11T05:55:15.964Z,42
2023-02-11T06:00:15.817Z,42
2023-02-11T06:05:14.440Z,42
2023-02-11T06:10:16.302Z,42
2023-02-11T06:15:20.493Z,40
2023-02-11T06:20:18.568Z,40
2023-02-11T06:25:16.424Z,42
2023-02-11T06:30:18.826Z,41
2023-02-11T06:35:17.600Z,41
2023-02-11T06:40:16.450Z,41
2023-02-11T06:45:16.425Z,40
2023-02-11T06:50:16.362Z,39
2023-02-11T06:55:14.468Z,42
2023-02-11T07:00:18.770Z,39
2023-02-11T07:05:21.803Z,42
2023-02-11T07:10:17.806Z,42
2023-02-11T07:15:20.872Z,43
2023-02-11T07:20:15.744Z,44
2023-02-11T07:25:22.917Z,42
2023-02-11T07:30:20.623Z,42
2023-02-11T07:35:26.778Z,42
2023-02-11T07:40:16.782Z,42
2023-02-11T07:45:16.603Z,42
2023-02-11T07:50:28.550Z,42
2023-02-11T07:55:22.593Z,42
2023-02-11T08:00:14.512Z,42
2023-02-11T08:05:20.682Z,42
2023-02-11T08:10:20.886Z,42
2023-02-11T08:15:15.765Z,42
2023-02-11T08:20:15.582Z,42
2023-02-11T08:25:16.736Z,41
2023-02-11T08:30:16.566Z,41
2023-02-11T08:35:16.423Z,41
2023-02-11T08:40:16.579Z,41
2023-02-11T08:45:20.510Z,41
2023-02-11T08:50:18.379Z,41
2023-02-11T08:55:22.202Z,42
2023-02-11T09:00:24.157Z,41
2023-02-11T09:05:18.305Z,41
2023-02-11T09:10:14.159Z,42
2023-02-11T09:15:18.097Z,42
2023-02-11T09:20:13.906Z,41
2023-02-11T09:25:19.750Z,41
2023-02-11T09:30:16.568Z,41
2023-02-11T09:35:18.455Z,41
2023-02-11T09:40:14.443Z,41
2023-02-11T09:45:14.311Z,41
2023-02-11T09:50:18.298Z,41
2023-02-11T09:55:16.134Z,40
2023-02-11T10:00:16.127Z,41
2023-02-11T10:05:28.726Z,41
2023-02-11T10:10:16.499Z,41
2023-02-11T10:15:16.415Z,40
2023-02-11T10:20:17.253Z,40
2023-02-11T10:25:16.306Z,43
2023-02-11T10:30:16.262Z,45
2023-02-11T10:35:22.165Z,42
2023-02-11T10:40:18.192Z,42
2023-02-11T10:45:18.160Z,42
2023-02-11T10:50:22.927Z,42
2023-02-11T10:55:13.994Z,41
2023-02-11T11:00:13.830Z,41
2023-02-11T11:05:22.376Z,41
2023-02-11T11:10:14.093Z,41
2023-02-11T11:15:14.964Z,41
2023-02-11T11:20:20.947Z,41
2023-02-11T11:25:18.198Z,41
2023-02-11T11:30:14.110Z,41
2023-02-11T11:35:18.056Z,40
2023-02-11T11:40:13.880Z,41
2023-02-11T11:45:19.838Z,41
2023-02-11T11:50:13.686Z,40
2023-02-11T11:55:14.458Z,40
2023-02-11T12:00:16.395Z,41
2023-02-11T12:05:20.217Z,41
2023-02-11T12:10:20.056Z,42
2023-02-11T12:15:13.947Z,41
2023-02-11T12:20:15.753Z,42
2023-02-11T12:25:14.910Z,41
2023-02-11T12:30:15.840Z,41
2023-02-11T12:35:13.720Z,41
2023-02-11T12:40:18.501Z,41
2023-02-11T12:45:22.478Z,42
2023-02-11T12:50:16.283Z,40
2023-02-11T12:55:18.214Z,43
2023-02-11T13:00:14.067Z,42
2023-02-11T13:05:14.582Z,42
2023-02-11T13:10:24.393Z,43
2023-02-11T13:15:18.314Z,43
2023-02-11T13:20:14.366Z,42
2023-02-11T13:25:20.468Z,42
2023-02-11T13:30:18.018Z,43
2023-02-11T13:35:15.805Z,42
2023-02-11T13:40:15.665Z,43
2023-02-11T13:45:16.504Z,42
2023-02-11T13:50:16.589Z,42
2023-02-11T13:55:14.443Z,42
2023-02-11T14:00:16.444Z,42
2023-02-11T14:05:18.595Z,41
2023-02-11T14:10:16.796Z,41
2023-02-11T14:15:25.267Z,42
2023-02-11T14:20:16.460Z,42
2023-02-11T14:25:16.256Z,43
2023-02-11T14:30:16.472Z,43
2023-02-11T14:35:18.282Z,41
2023-02-11T14:40:18.469Z,42
2023-02-11T14:45:14.181Z,41
2023-02-11T14:50:23.865Z,41
2023-02-11T14:55:23.603Z,41
2023-02-11T15:00:17.612Z,42
2023-02-11T15:05:15.982Z,40
2023-02-11T15:10:23.927Z,41
2023-02-11T15:15:13.784Z,41
2023-02-11T15:20:19.581Z,42
2023-02-11T15:25:18.428Z,40
2023-02-11T15:30:20.590Z,42
2023-02-11T15:35:16.563Z,40
2023-02-11T15:40:18.461Z,41
2023-02-11T15:45:14.359Z,41
2023-02-11T15:50:28.222Z,42
2023-02-11T15:55:14.158Z,42
2023-02-11T16:00:18.272Z,42
2023-02-11T16:05:17.860Z,42
2023-02-11T16:10:24.317Z,41
2023-02-11T16:15:18.303Z,42
2023-02-11T16:20:14.359Z,42
2023-02-11T16:25:20.348Z,42
2023-02-11T16:30:20.560Z,42
2023-02-11T16:35:20.435Z,41
2023-02-11T16:40:16.258Z,42
2023-02-11T16:45:20.311Z,42
2023-02-11T16:50:16.171Z,42
2023-02-11T16:55:22.353Z,42
2023-02-11T17:00:24.511Z,42
2023-02-11T17:05:22.514Z,41
2023-02-11T17:10:14.290Z,43
2023-02-11T17:15:22.804Z,44
2023-02-11T17:20:17.601Z,43
2023-02-11T17:25:16.453Z,43
2023-02-11T17:30:23.452Z,43
2023-02-11T17:35:18.187Z,42
2023-02-11T17:40:16.036Z,43
2023-02-11T17:45:22.619Z,43
2023-02-11T17:50:16.454Z,43
2023-02-11T17:55:18.240Z,43
2023-02-11T18:00:20.083Z,43
2023-02-11T18:05:21.157Z,44
2023-02-11T18:10:20.296Z,44
2023-02-11T18:15:14.182Z,45
2023-02-11T18:20:16.061Z,46
2023-02-11T18:25:15.868Z,44
2023-02-11T18:30:19.854Z,45
2023-02-11T18:35:15.790Z,45
2023-02-11T18:40:22.579Z,44
2023-02-11T18:45:14.508Z,45
2023-02-11T18:50:20.301Z,45
2023-02-11T18:55:18.152Z,43
2023-02-11T19:00:13.940Z,44
2023-02-11T19:05:15.740Z,45
2023-02-11T19:10:18.688Z,45
2023-02-11T19:15:14.610Z,45
2023-02-11T19:20:18.415Z,45
2023-02-11T19:25:14.179Z,45
2023-02-11T19:30:16.090Z,44
2023-02-11T19:35:16.180Z,43
2023-02-11T19:40:18.026Z,44
2023-02-11T19:45:17.971Z,44
2023-02-11T19:50:21.740Z,44
2023-02-11T19:55:16.882Z,44
2023-02-11T20:00:16.003Z,44
2023-02-11T20:05:17.704Z,44
2023-02-11T20:10:20.642Z,44
2023-02-11T20:15:20.529Z,44
2023-02-11T20:20:24.429Z,42
2023-02-11T20:25:14.180Z,44
2023-02-11T20:30:16.126Z,44
2023-02-11T20:35:19.932Z,44
2023-02-11T20:40:17.661Z,44
2023-02-11T20:45:24.583Z,43
2023-02-11T20:50:18.427Z,42
2023-02-11T20:55:16.204Z,42
2023-02-11T21:00:14.436Z,43
2023-02-11T21:05:16.371Z,43
2023-02-11T21:10:14.420Z,43
2023-02-11T21:15:14.410Z,43
2023-02-11T21:20:18.514Z,43
2023-02-11T21:25:16.751Z,42
2023-02-11T21:30:16.592Z,43
2023-02-11T21:35:16.557Z,43
2023-02-11T21:40:16.352Z,43
2023-02-11T21:45:16.157Z,43
2023-02-11T21:50:17.994Z,42
2023-02-11T21:55:15.819Z,41
2023-02-11T22:00:15.690Z,42
2023-02-11T22:05:15.217Z,42
2023-02-11T22:10:14.051Z,42
2023-02-11T22:15:15.985Z,42
2023-02-11T22:20:21.969Z,42
2023-02-11T22:25:19.845Z,42
2023-02-11T22:30:19.953Z,42
2023-02-11T22:35:15.745Z,42
2023-02-11T22:40:16.602Z,42
2023-02-11T22:45:16.512Z,42
2023-02-11T22:50:14.323Z,42
2023-02-11T22:55:14.508Z,41
2023-02-11T23:00:22.384Z,41
2023-02-11T23:05:14.331Z,42
2023-02-11T23:10:16.263Z,42
2023-02-11T23:15:16.730Z,42
2023-02-11T23:20:18.727Z,41
2023-02-11T23:25:20.413Z,42
2023-02-11T23:30:20.455Z,41
2023-02-11T23:35:16.301Z,41
2023-02-11T23:40:18.101Z,40
2023-02-11T23:45:13.985Z,41
2023-02-11T23:50:15.869Z,40
2023-02-11T23:55:19.811Z,41
